Aeroporto :
LOGIN :

Iscrizione | Disclaimer

   EN    FR    IT 

 










Sommario :    VFR   VFR Marginale   IFR   IFR Intensivo   IFR Molto Intensivo
Visibilità : 
Base nubi : 
>= 8 km
>= 3000ft
5 / 8 km
1000 / 3000 ft
1500m / 5 km
500 / 1000 ft
800 / 1500m
200 / 500 ft
< 800m
< 200 ft
Simboli :   Temporali  Nebbia  Neve Forte  Precipitazioni Forti  Vento > 20 kt
SIGMETs :   Varie  Temporali  Ghiacco  Turbolenza  Onda orograficha  Ceneri Vulcaniche






- Altitudine del aeroporto : 17 ft
- Codice IATA : CPH


EKCH - København - Kastrup (Copenhagen)

ULTIMO METAR :
  • 240450Z 24012KT 6000 -DZ FEW004 BKN006 06/05 Q1017 TEMPO 4000 BR BKN004

METARs OBSOLETI :
  • 240420Z 24014KT 9999 BKN006 06/05 Q1018 TEMPO 4000 -RADZ BR BKN004
  • 240350Z 24014KT 5000 -DZ OVC004 06/05 Q1018 TEMPO 4000 BKN005
  • 240320Z 24013KT 5000 -DZ OVC004 05/05 Q1018 TEMPO 4000 BKN005
  • 240250Z 24013KT 6000 -DZ OVC004 05/05 Q1019 TEMPO 4000 BKN005
  • 240220Z 24013KT 6000 -DZ OVC004 05/05 Q1019 TEMPO 4000 BKN005

TAF TAF EKCH
Valido dal 24 a 00 ore il 25 a 00 ore UTC


232338Z 2400/2424 25012KT 5000 BKN005
TEMPO 2400/2406 1200 -RADZ BR BKN002
BECMG 2406/2408 BKN015
TEMPO 2408/2416 BKN008
TEMPO 2416/2419 3000 -RADZ BR BKN004



MetMap, La meteo Aeronautica in un colpo d'occhio ! - Copyright ORBIFLY Dicembre 2007 - Disclaimer

ORBIFLY MET'MAP TEAM :

Programmazione e sviluppo : Alexandra Zaïnal
Concezione : Baudouin d'Aumeries
Aiuto per la programmazione : Marc-Olivier Méhu
Supporto tecnico e logistico : Manuel Goepfert
Aiuto per la traduzione : Arnaldo La Scala

Contatto : metmap@orbifly.com




FONTI E CREDITI :

   NOAA